Home > Products > Valid Products > TAF

000
FTUS44 KEPZ 140541
TAFDMN
TAF
KDMN 140541Z 1406/1506 29007KT P6SM SCT200
     FM141800 35006KT P6SM SCT250
     FM142200 27009KT P6SM SCT250
     FM150400 31006KT P6SM SCT250=



000
FTUS44 KEPZ 140541
TAFTCS
TAF
KTCS 140541Z 1406/1506 33008KT P6SM SCT250
     FM142100 15007KT P6SM SCT250
     FM150400 30006KT P6SM SCT250=



000
FTUS44 KEPZ 140541
TAFELP
TAF
KELP 140541Z 1406/1506 VRB04KT P6SM SCT250
     FM141200 03005KT P6SM SCT250
     FM142300 33006KT P6SM SCT250=



000
FTUS44 KEPZ 132328
TAFELP
TAF
KELP 132328Z 1400/1424 24007KT P6SM SCT250
     FM140600 02007KT P6SM SCT250
     FM142200 33006KT P6SM SCT250=



000
FTUS44 KEPZ 132328
TAFTCS
TAF
KTCS 132328Z 1400/1424 16008KT P6SM SCT250
     FM140600 33008KT P6SM SCT250
     FM142100 15007KT P6SM SCT250=



000
FTUS44 KEPZ 132328
TAFDMN
TAF
KDMN 132328Z 1400/1424 25007KT P6SM SCT250
     FM140600 29007KT P6SM SCT200
     FM141800 35006KT P6SM SCT200=



000
FTUS44 KEPZ 132328
TAFELP
TAF
KELP 132328Z 1400/1424 24007KT P6SM SCT250
     FM140600 02007KT P6SM SCT250
     FM142200 33006KT P6SM SCT250=



000
FTUS44 KEPZ 132328
TAFTCS
TAF
KTCS 132328Z 1400/1424 16008KT P6SM SCT250
     FM140600 33008KT P6SM SCT250
     FM142100 15007KT P6SM SCT250=



000
FTUS44 KEPZ 132328
TAFDMN
TAF
KDMN 132328Z 1400/1424 25007KT P6SM SCT250
     FM140600 29007KT P6SM SCT200
     FM141800 35006KT P6SM SCT200=



000
FTUS44 KEPZ 131736
TAFTCS
TAF
KTCS 131736Z 1318/1418 16008KT P6SM SCT250
     FM140600 33008KT P6SM SCT200=



000
FTUS44 KEPZ 131736
TAFELP
TAF
KELP 131736Z 1318/1418 16008KT P6SM SCT200 BKN250
     FM132100 24007KT P6SM SCT250
     FM140600 35007KT P6SM SCT200=



000
FTUS44 KEPZ 131736
TAFDMN
TAF
KDMN 131736Z 1318/1418 13008KT P6SM SCT200 BKN250
     FM132100 25007KT P6SM SCT250
     FM140600 29007KT P6SM SCT200=



000
FTUS44 KEPZ 131124
TAFELP
TAF
KELP 131124Z 1312/1412 01006KT P6SM FEW250
     FM131800 20006KT P6SM FEW250
     FM140200 29005KT P6SM FEW250=



000
FTUS44 KEPZ 131124
TAFDMN
TAF
KDMN 131124Z 1312/1412 VRB06KT P6SM FEW250
     FM140000 27006KT P6SM FEW250=



000
FTUS44 KEPZ 131124
TAFTCS
TAF
KTCS 131124Z 1312/1412 31007KT P6SM FEW250
     FM131800 17009KT P6SM SKC
     FM140300 30008KT P6SM FEW250=



000
FTUS44 KEPZ 131124
TAFDMN
TAF
KDMN 131124Z 1312/1412 VRB06KT P6SM FEW250
     FM140000 27006KT P6SM FEW250=



000
FTUS44 KEPZ 131124
TAFELP
TAF
KELP 131124Z 1312/1412 01006KT P6SM FEW250
     FM131800 20006KT P6SM FEW250
     FM140200 29005KT P6SM FEW250=



000
FTUS44 KEPZ 131124
TAFTCS
TAF
KTCS 131124Z 1312/1412 31007KT P6SM FEW250
     FM131800 17009KT P6SM SKC
     FM140300 30008KT P6SM FEW250=



000
FTUS44 KEPZ 130520
TAFTCS
TAF
KTCS 130520Z 1306/1406 32006KT P6SM FEW250
     FM131200 VRB04KT P6SM FEW250
     FM132000 16007KT P6SM FEW250
     FM140400 30006KT P6SM FEW250=



000
FTUS44 KEPZ 130520
TAFELP
TAF
KELP 130520Z 1306/1406 06006KT P6SM FEW250
     FM132300 24006KT P6SM FEW250
     FM140500 02005KT P6SM FEW250=



000
FTUS44 KEPZ 130520
TAFDMN
TAF
KDMN 130520Z 1306/1406 05005KT P6SM FEW250
     FM130700 30006KT P6SM FEW250
     FM131400 02005KT P6SM FEW250
     FM140400 30005KT P6SM FEW250=



000
FTUS44 KEPZ 122320
TAFELP
TAF
KELP 122320Z 1300/1324 VRB05KT P6SM SKC
     FM130600 06006KT P6SM FEW250
     FM132300 24006KT P6SM FEW250=



000
FTUS44 KEPZ 122320
TAFDMN
TAF
KDMN 122320Z 1300/1324 10005KT P6SM SKC
     FM130300 05005KT P6SM SKC
     FM130700 30006KT P6SM SKC=



000
FTUS44 KEPZ 122320
TAFTCS
TAF
KTCS 122320Z 1300/1324 12005KT P6SM SKC
     FM130300 32006KT P6SM FEW250
     FM131200 VRB04KT P6SM FEW250
     FM132000 16007KT P6SM FEW250=



000
FTUS44 KEPZ 121720
TAFTCS
TAF
KTCS 121720Z 1218/1318 12005KT P6SM SKC
     FM130300 32006KT P6SM SKC
     FM131200 VRB04KT P6SM SKC=



000
FTUS44 KEPZ 121720
TAFELP
TAF
KELP 121720Z 1218/1318 VRB05KT P6SM SKC
     FM131600 13006KT P6SM SKC=



000
FTUS44 KEPZ 121720
TAFDMN
TAF
KDMN 121720Z 1218/1318 10005KT P6SM SKC
     FM130300 05005KT P6SM SKC=



000
FTUS44 KEPZ 121720
TAFTCS
TAF
KTCS 121720Z 1218/1318 12005KT P6SM SKC
     FM130300 32006KT P6SM SKC
     FM131200 VRB04KT P6SM SKC=



000
FTUS44 KEPZ 121720
TAFELP
TAF
KELP 121720Z 1218/1318 VRB05KT P6SM SKC
     FM131600 13006KT P6SM SKC=



000
FTUS44 KEPZ 121720
TAFDMN
TAF
KDMN 121720Z 1218/1318 10005KT P6SM SKC
     FM130300 05005KT P6SM SKC=



000
FTUS44 KEPZ 121129
TAFELP
TAF
KELP 121129Z 1212/1312 01005KT P6SM SKC
     FM121500 VRB05KT P6SM FEW250=



000
FTUS44 KEPZ 121129
TAFTCS
TAF
KTCS 121129Z 1212/1312 32004KT P6SM SKC
     FM121800 15005KT P6SM SKC
     FM130300 32005KT P6SM SKC=



000
FTUS44 KEPZ 121129
TAFDMN
TAF
KDMN 121129Z 1212/1312 VRB05KT P6SM SKC
     FM121500 08005KT P6SM SKC
     FM130300 30005KT P6SM FEW250=



000
FTUS44 KEPZ 121129
TAFELP
TAF
KELP 121129Z 1212/1312 01005KT P6SM SKC
     FM121500 VRB05KT P6SM FEW250=



000
FTUS44 KEPZ 121129
TAFDMN
TAF
KDMN 121129Z 1212/1312 VRB05KT P6SM SKC
     FM121500 08005KT P6SM SKC
     FM130300 30005KT P6SM FEW250=



000
FTUS44 KEPZ 121129
TAFTCS
TAF
KTCS 121129Z 1212/1312 32004KT P6SM SKC
     FM121800 15005KT P6SM SKC
     FM130300 32005KT P6SM SKC=



000
FTUS44 KEPZ 120525
TAFTCS
TAF
KTCS 120525Z 1206/1306 32006KT P6SM SKC
     FM121200 VRB04KT P6SM FEW250
     FM122100 15005KT P6SM SKC=



000
FTUS44 KEPZ 120525
TAFELP
TAF
KELP 120525Z 1206/1306 03005KT P6SM FEW250
     FM130300 02006KT P6SM FEW250=



000
FTUS44 KEPZ 120525
TAFDMN
TAF
KDMN 120525Z 1206/1306 VRB05KT P6SM SKC
     FM121500 08005KT P6SM FEW250
     FM122100 07005KT P6SM FEW250
     FM130500 30005KT P6SM FEW250=



000
FTUS44 KEPZ 120525
TAFTCS
TAF
KTCS 120525Z 1206/1306 32006KT P6SM SKC
     FM121200 VRB04KT P6SM FEW250
     FM122100 15005KT P6SM SKC=



000
FTUS44 KEPZ 120525
TAFDMN
TAF
KDMN 120525Z 1206/1306 VRB05KT P6SM SKC
     FM121500 08005KT P6SM FEW250
     FM122100 07005KT P6SM FEW250
     FM130500 30005KT P6SM FEW250=



000
FTUS44 KEPZ 120525
TAFELP
TAF
KELP 120525Z 1206/1306 03005KT P6SM FEW250
     FM130300 02006KT P6SM FEW250=



000
FTUS44 KEPZ 112320
TAFTCS
TAF
KTCS 112320Z 1200/1224 05006KT P6SM SKC
     FM120300 32006KT P6SM SKC
     FM121200 VRB04KT P6SM FEW250
     FM122100 15005KT P6SM SKC=



000
FTUS44 KEPZ 112320
TAFDMN
TAF
KDMN 112320Z 1200/1224 VRB05KT P6SM SKC
     FM121500 08005KT P6SM FEW250
     FM122100 07005KT P6SM FEW250=



000
FTUS44 KEPZ 112320
TAFELP
TAF
KELP 112320Z 1200/1224 30006KT P6SM SKC
     FM120300 03005KT P6SM FEW250=



000
FTUS44 KEPZ 112320
TAFDMN
TAF
KDMN 112320Z 1200/1224 VRB05KT P6SM SKC
     FM121500 08005KT P6SM FEW250
     FM122100 07005KT P6SM FEW250=



000
FTUS44 KEPZ 112320
TAFTCS
TAF
KTCS 112320Z 1200/1224 05006KT P6SM SKC
     FM120300 32006KT P6SM SKC
     FM121200 VRB04KT P6SM FEW250
     FM122100 15005KT P6SM SKC=



000
FTUS44 KEPZ 112320
TAFELP
TAF
KELP 112320Z 1200/1224 30006KT P6SM SKC
     FM120300 03005KT P6SM FEW250=



000
FTUS44 KEPZ 111721
TAFELP
TAF
KELP 111721Z 1118/1218 30006KT P6SM SKC
     FM120300 03005KT P6SM SKC=



000
FTUS44 KEPZ 111721
TAFTCS
TAF
KTCS 111721Z 1118/1218 05006KT P6SM SKC
     FM120300 32006KT P6SM SKC
     FM121200 VRB04KT P6SM SKC=



000
FTUS44 KEPZ 111721
TAFDMN
TAF
KDMN 111721Z 1118/1218 VRB05KT P6SM SKC
     FM121500 08005KT P6SM SKC=



000
FTUS44 KEPZ 111123
TAFELP
TAF
KELP 111123Z 1112/1212 35005KT P6SM SKC
     FM120200 VRB05KT P6SM SKC=



000
FTUS44 KEPZ 111123
TAFDMN
TAF
KDMN 111123Z 1112/1212 VRB05KT P6SM SKC=



000
FTUS44 KEPZ 111123
TAFTCS
TAF
KTCS 111123Z 1112/1212 33007KT P6SM SKC
     FM111600 06006KT P6SM SKC
     FM120100 32006KT P6SM FEW250=



    US Dept of Commerce
    National Oceanic and Atmospheric Administration
    National Weather Service
    1325 East West Highway
    Silver Spring, MD 20910
    Page Author: NWS Internet Services Team
Disclaimer
Information Quality
Credits
Glossary
Privacy Policy
Freedom of Information Act (FOIA)
About Us
Career Opportunities